• Join FlightAware (Why Join?)
  • Login
  • US Flag 
12:39AM EDT


 

Airport Tracker/Info


-or-


 

Live Flight TrackerFlight Track Log ✈ ACA831 ✈ 17-Aug-2013 ✈ LSGG / GVA - CYUL

Flight Track Log - Related Links

Times and Time Zones

All times are in EDT time to prevent confusion due to time zone crossing. See the ACA831 flight status page for this flight to view local times or setup timezone preferences in your user account.

Time Position Orientation Groundspeed Altitude Reporting Facility
EDT Latitude Longitude Course Direction KTS MPH feet Rate Location/Type
06:04AM 46.2290 6.1050 North  Level FlightAware
06:07AM 46.3774 5.7349 300° West  Level Estimated
06:07AM 46.2280 6.1040 300° West  Level FlightAware
06:08AM 46.4356 5.5887 300° West  Level Estimated
06:10AM 46.3472 5.8079 300° West  Level Estimated
06:11AM 46.4055 5.6618 300° West  Level Estimated
06:12AM 46.4637 5.5154 300° West  Level Estimated
06:21AM 46.2420 6.1230 270° West  Level FlightAware
06:25AM 46.2430 6.1230 270° West 240 Level FlightAware
06:26AM 46.2410 6.1200 215° Southwest 80 92 780 Level FlightAware
06:26AM 46.2370 6.1140 226° Southwest 135 155 2,640 Level FlightAware
06:27AM 46.2250 6.0960 226° Southwest 185 213 1,500 3,360 Climbing FlightAware
06:27AM 46.2120 6.0770 225° Southwest 192 221 2,500 3,000 Climbing FlightAware
06:27AM 46.1990 6.0580 225° Southwest 193 222 3,600 2,580 Climbing FlightAware
06:28AM 46.1860 6.0390 225° Southwest 197 227 4,300 2,280 Climbing FlightAware
06:28AM 46.1710 6.0160 227° Southwest 199 229 5,300 2,340 Climbing FlightAware
06:29AM 46.1590 5.9970 228° Southwest 201 231 6,000 2,220 Climbing FlightAware
06:29AM 46.1460 5.9780 225° Southwest 204 235 6,800 2,160 Climbing FlightAware
06:29AM 46.1360 5.9600 231° Southwest 216 249 7,300 1,800 Climbing FlightAware
06:29AM 46.1340 5.9550 240° Southwest 222 255 7,400 1,200 Climbing FlightAware
06:29AM 46.1330 5.9460 261° West 230 265 7,500 1,140 Climbing FlightAware
06:30AM 46.1470 5.9050 296° West 262 302 8,100 1,320 Climbing FlightAware
06:30AM 46.1530 5.9000 330° Northwest 263 303 8,300 2,520 Climbing FlightAware
06:30AM 46.1770 5.8790 329° Northwest 275 316 9,300 2,280 Climbing FlightAware
06:31AM 46.2120 5.8300 316° Northwest 301 346 10,600 1,740 Climbing FlightAware
06:31AM 46.2460 5.7830 316° Northwest 340 391 11,300 1,380 Climbing FlightAware
06:32AM 46.2920 5.7210 317° Northwest 382 440 12,200 2,040 Climbing FlightAware
06:33AM 46.3410 5.6560 318° Northwest 398 458 13,800 2,640 Climbing FlightAware
06:33AM 46.3900 5.5910 318° Northwest 409 471 15,400 2,640 Climbing FlightAware
06:34AM 46.4340 5.5320 317° Northwest 416 479 16,800 2,460 Climbing FlightAware
06:34AM 46.4830 5.4670 318° Northwest 426 490 18,200 2,460 Climbing FlightAware
06:35AM 46.5400 5.3990 321° Northwest 432 497 19,800 2,340 Climbing FlightAware
06:36AM 46.6080 5.3610 339° North 445 512 21,100 2,100 Climbing FlightAware
06:36AM 46.6720 5.3360 345° North 451 519 22,200 1,920 Climbing FlightAware
06:36AM 46.7050 5.3170 338° Northwest 453 521 22,700 1,920 Climbing FlightAware
06:37AM 46.7630 5.2550 324° Northwest 455 524 23,900 1,980 Climbing FlightAware
06:37AM 46.8120 5.1900 318° Northwest 460 529 24,900 1,920 Climbing FlightAware
06:38AM 46.8650 5.1180 317° Northwest 464 534 26,000 1,860 Climbing FlightAware
06:39AM 46.9220 5.0390 317° Northwest 468 539 27,100 2,100 Climbing FlightAware
06:39AM 46.9790 4.9600 317° Northwest 462 532 28,600 1,980 Climbing FlightAware
06:40AM 47.0490 4.8620 316° Northwest 459 528 29,900 1,080 Climbing FlightAware
06:41AM 47.0980 4.7980 318° Northwest 462 532 30,000 60 Climbing FlightAware
06:41AM 47.1560 4.7210 318° Northwest 463 533 30,000  Level FlightAware
06:42AM 47.2140 4.6430 318° Northwest 465 535 30,000  Level FlightAware
06:42AM 47.2620 4.5790 318° Northwest 464 534 30,000  Level FlightAware
06:43AM 47.3190 4.5020 318° Northwest 463 533 30,000  Level FlightAware
06:43AM 47.3730 4.4290 318° Northwest 464 534 30,000  Level FlightAware
06:44AM 47.4350 4.3450 318° Northwest 464 534 30,000  Level FlightAware
06:45AM 47.4860 4.2750 317° Northwest 465 535 30,000 480 Level FlightAware
06:45AM 47.5440 4.1960 317° Northwest 466 536 30,600 960 Climbing FlightAware
06:46AM 47.6000 4.1200 318° Northwest 466 536 31,200 960 Climbing FlightAware
06:46AM 47.6490 4.0530 317° Northwest 461 531 31,700 660 Climbing FlightAware
06:47AM 47.7050 3.9770 318° Northwest 451 519 32,000 240 Climbing FlightAware
06:48AM 47.7600 3.9000 317° Northwest 447 514 32,000  Level FlightAware
06:48AM 47.8100 3.8320 318° Northwest 449 517 32,000  Level FlightAware
06:49AM 47.8650 3.7560 317° Northwest 447 514 32,000  Level FlightAware
06:49AM 47.9160 3.6840 317° Northwest 446 513 32,000  Level FlightAware
06:50AM 47.9710 3.6070 317° Northwest 443 510 32,000  Level FlightAware
06:50AM 48.0220 3.5370 317° Northwest 441 507 32,000  Level FlightAware
06:51AM 48.0860 3.4470 317° Northwest 439 505 32,000  Level FlightAware
06:52AM 48.1400 3.3710 317° Northwest 437 503 32,000  Level FlightAware
06:52AM 48.1880 3.3030 317° Northwest 435 501 32,000  Level FlightAware
06:53AM 48.2340 3.2370 316° Northwest 434 499 32,000  Level FlightAware
06:54AM 48.2910 3.1570 317° Northwest 432 497 32,000  Level FlightAware
06:54AM 48.3420 3.0850 317° Northwest 431 496 32,000  Level FlightAware
06:55AM 48.3860 3.0190 315° West 431 496 32,000  Level FlightAware
06:55AM 48.4250 2.9150 300° West 447 514 32,000  Level FlightAware
06:56AM 48.4460 2.8100 287° West 449 517 32,000  Level FlightAware
06:56AM 48.4660 2.7090 287° West 449 517 32,000  Level FlightAware
06:57AM 48.4840 2.6170 286° West 447 514 32,000  Level FlightAware
06:58AM 48.5020 2.5220 286° West 447 514 32,000  Level FlightAware
06:58AM 48.5250 2.3980 286° West 446 513 32,000  Level FlightAware
06:59AM 48.5450 2.2960 287° West 446 513 32,000  Level FlightAware
06:59AM 48.5650 2.1870 286° West 445 512 32,000  Level FlightAware
07:00AM 48.5862 2.0940 286° West 472 543 32,000  Level FlightAware UK
07:00AM 48.5850 2.0830 286° West 444 511 32,000  Level FlightAware
07:00AM 48.6050 1.9780 286° West 443 510 32,000  Level FlightAware
07:01AM 48.6250 1.8720 286° West 443 510 32,000  Level FlightAware
07:02AM 48.6440 1.7680 285° West 445 512 32,000  Level FlightAware
07:02AM 48.6640 1.6510 285° West 444 511 32,000  Level FlightAware
07:02AM 48.6684 1.6450 285° West 474 545 32,000  Level FlightAware UK
07:03AM 48.6839 1.5547 285° West 472 543 32,000  Level FlightAware UK
07:03AM 48.6850 1.5330 285° West 445 512 32,000  Level FlightAware
07:04AM 48.7030 1.4350 286° West 444 511 32,000  Level FlightAware
07:04AM 48.7240 1.3220 286° West 444 511 32,000  Level FlightAware
07:05AM 48.7431 1.2322 286° West 468 539 32,000  Level FlightAware UK
07:05AM 48.7430 1.2170 286° West 444 511 32,000  Level FlightAware
07:05AM 48.7600 1.1240 286° West 446 513 32,000  Level FlightAware
07:06AM 48.7800 1.0090 285° West 446 513 32,000  Level FlightAware
07:06AM 48.8000 0.8950 285° West 446 513 32,000  Level FlightAware
07:07AM 48.8170 0.8000 285° West 447 514 32,000  Level FlightAware
07:08AM 48.8360 0.6910 285° West 446 513 32,000  Level FlightAware
07:08AM 48.8530 0.5930 285° West 446 513 32,000  Level FlightAware
07:09AM 48.8760 0.4620 285° West 446 513 32,000  Level FlightAware
07:09AM 48.8799 0.4558 285° West 474 545 32,000  Level FlightAware UK
07:09AM 48.8950 0.3500 285° West 446 513 32,000  Level FlightAware
07:10AM 48.9142 0.2586 285° West 478 550 32,000  Level FlightAware UK
07:10AM 48.9150 0.2370 285° West 445 512 32,000  Level FlightAware
07:11AM 48.9290 0.1520 284° West 444 511 32,000  Level FlightAware
07:11AM 48.9480 0.0420 285° West 443 510 32,000  Level FlightAware
07:12AM 48.9700 -0.0940 284° West 443 510 32,000  Level FlightAware
07:12AM 48.9860 -0.1860 285° West 442 509 32,000  Level FlightAware
07:13AM 49.0050 -0.3000 284° West 442 509 32,000  Level FlightAware
07:14AM 49.0210 -0.4000 284° West 441 507 32,000  Level FlightAware
07:14AM 49.0393 -0.5025 284° West 476 548 32,000  Level FlightAware UK
07:14AM 49.0380 -0.5100 284° West 439 505 32,000  Level FlightAware
07:15AM 49.0550 -0.6120 284° West 439 505 32,000  Level FlightAware
07:15AM 49.0720 -0.7180 284° West 438 504 32,000  Level FlightAware
07:16AM 49.0880 -0.8150 284° West 438 504 32,000  Level FlightAware
07:17AM 49.1030 -0.9140 283° West 438 504 32,000  Level FlightAware
07:17AM 49.1180 -1.0070 284° West 437 503 32,000  Level FlightAware
07:18AM 49.1380 -1.1400 283° West 435 501 32,000  Level FlightAware
07:18AM 49.1520 -1.2310 283° West 435 501 32,000  Level FlightAware
07:19AM 49.1690 -1.3360 284° West 434 499 32,000  Level FlightAware
07:19AM 49.1820 -1.4260 282° West 433 498 32,000  Level FlightAware
07:20AM 49.2022 -1.5413 282° West 476 548 32,000  Level FlightAware UK
07:20AM 49.1990 -1.5350 282° West 432 497 32,000  Level FlightAware
07:21AM 49.2160 -1.6450 283° West 431 496 32,000  Level FlightAware
07:21AM 49.2350 -1.7546 283° West 474 545 32,000  Level FlightAware UK
07:21AM 49.2320 -1.7500 283° West 430 495 32,000  Level FlightAware
07:22AM 49.2460 -1.8450 283° West 430 495 32,000  Level FlightAware
07:22AM 49.2610 -1.9450 283° West 430 495 32,000  Level FlightAware
07:23AM 49.2780 -2.0560 283° West 429 494 32,000 600 Level FlightAware
07:24AM 49.2940 -2.1640 283° West 427 491 32,800 1,380 Climbing FlightAware
07:24AM 49.3080 -2.2620 282° West 423 487 33,700 900 Climbing FlightAware
07:25AM 49.3260 -2.3880 282° West 421 484 34,000 180 Climbing FlightAware
07:25AM 49.3400 -2.4910 282° West 421 484 34,000  Level FlightAware
07:26AM 49.3520 -2.5780 282° West 420 483 34,000  Level FlightAware
07:27AM 49.3680 -2.6880 283° West 421 484 34,000  Level FlightAware
07:27AM 49.3830 -2.7980 282° West 423 487 34,000  Level FlightAware
07:28AM 49.3960 -2.8900 282° West 423 487 34,000  Level FlightAware
07:28AM 49.4110 -2.9950 282° West 423 487 34,000  Level FlightAware
07:29AM 49.4250 -3.0980 282° West 423 487 34,000  Level FlightAware
07:29AM 49.4390 -3.2050 281° West 422 486 34,000  Level FlightAware
07:30AM 49.4530 -3.3010 283° West 421 484 34,000  Level FlightAware
07:31AM 49.4660 -3.4040 281° West 421 484 34,000  Level FlightAware
07:31AM 49.4810 -3.5090 282° West 422 486 34,000  Level FlightAware
07:32AM 49.4988 -3.6176 282° West 470 541 34,000  Level FlightAware UK
07:32AM 49.4950 -3.6150 282° West 423 487 34,000  Level FlightAware
07:32AM 49.5070 -3.7080 281° West 423 487 34,000  Level FlightAware
07:33AM 49.5243 -3.8117 281° West 472 543 34,000  Level FlightAware UK
07:33AM 49.5210 -3.8150 281° West 423 487 34,000  Level FlightAware
07:33AM 49.5330 -3.9090 281° West 423 487 34,000  Level FlightAware
07:34AM 49.5494 -4.0065 281° West 470 541 34,000  Level FlightAware UK
07:34AM 49.5470 -4.0220 281° West 423 487 34,000  Level FlightAware
07:34AM 49.5550 -4.0680 285° West 425 489 34,000  Level FlightAware
07:35AM 49.5840 -4.1550 297° West 429 494 34,000  Level FlightAware
07:35AM 49.6240 -4.2330 297° West 430 495 34,000  Level FlightAware
07:35AM 49.6315 -4.2435 297° West 472 543 34,000  Level FlightAware UK
07:36AM 49.6750 -4.3340 308° West 430 495 34,000  Level FlightAware
07:37AM 49.7150 -4.4110 309° West 430 495 34,000  Level FlightAware
07:37AM 49.7580 -4.4970 308° West 430 495 34,000  Level FlightAware
07:38AM 49.8030 -4.5840 309° West 430 495 34,000  Level FlightAware
07:38AM 49.8450 -4.6680 308° West 430 495 34,000  Level FlightAware
07:39AM 49.8840 -4.7450 308° West 430 495 34,000  Level FlightAware
07:40AM 49.9240 -4.8240 308° West 430 495 34,000  Level FlightAware
07:40AM 49.9710 -4.9190 308° West 429 494 34,000  Level FlightAware
07:41AM 50.0110 -5.0000 308° West 429 494 34,000  Level FlightAware
07:41AM 50.0560 -5.0890 308° West 427 491 34,000  Level FlightAware
07:42AM 50.0980 -5.1730 308° West 426 490 34,000  Level FlightAware
07:42AM 50.1444 -5.2602 308° West 474 545 34,000  Level FlightAware UK
07:42AM 50.1390 -5.2560 308° West 426 490 34,000  Level FlightAware
07:43AM 50.1840 -5.3480 307° West 425 489 34,000  Level FlightAware
07:44AM 50.2250 -5.4320 307° West 425 489 34,000  Level FlightAware
07:44AM 50.2670 -5.5180 307° West 426 490 34,000  Level FlightAware
07:45AM 50.3040 -5.5920 308° West 425 489 34,000  Level FlightAware
07:45AM 50.3480 -5.6820 307° West 425 489 34,000  Level FlightAware
07:46AM 50.3956 -5.7706 307° West 474 545 34,000  Level FlightAware UK
07:46AM 50.3910 -5.7700 307° West 424 488 34,000  Level FlightAware
07:47AM 50.4320 -5.8540 307° West 423 487 34,000  Level FlightAware
07:47AM 50.4710 -5.9360 307° West 423 487 34,000  Level FlightAware
07:48AM 50.5130 -6.0230 307° West 422 486 34,000  Level FlightAware
07:48AM 50.5550 -6.1110 307° West 421 484 34,000  Level FlightAware
07:49AM 50.6007 -6.1941 307° West 472 543 34,000  Level FlightAware UK
07:49AM 50.6010 -6.2000 307° West 425 489 34,000  Level FlightAware
07:49AM 50.6460 -6.2700 315° West 430 495 34,000  Level FlightAware
07:50AM 50.7020 -6.3470 319° Northwest 430 495 34,000  Level FlightAware
07:51AM 50.7570 -6.4220 319° Northwest 429 494 34,000  Level FlightAware
07:51AM 50.8030 -6.4860 319° Northwest 428 493 34,000  Level FlightAware
07:52AM 50.8570 -6.5600 319° Northwest 426 490 34,000  Level FlightAware
07:52AM 50.8675 -6.5664 319° Northwest 474 545 34,000  Level FlightAware UK
07:52AM 50.9123 -6.6272 319° Northwest 474 545 34,000  Level FlightAware UK
07:52AM 50.9100 -6.6330 319° Northwest 425 489 34,000  Level FlightAware
07:53AM 50.9650 -6.7080 319° Northwest 423 487 34,000  Level FlightAware
07:54AM 51.0110 -6.7720 319° Northwest 422 486 34,000  Level FlightAware
07:54AM 51.0640 -6.8460 319° Northwest 421 484 34,000  Level FlightAware
07:55AM 51.1100 -6.9090 319° Northwest 420 483 34,000  Level FlightAware
07:55AM 51.1620 -6.9830 319° Northwest 420 483 34,000  Level FlightAware
07:55AM 51.1772 -6.9933 319° Northwest 472 543 34,000  Level FlightAware UK
07:56AM 51.2210 -7.0539 319° Northwest 472 543 34,000  Level FlightAware UK
07:56AM 51.2110 -7.0510 319° Northwest 418 481 34,000  Level FlightAware
07:56AM 51.2738 -7.1259 319° Northwest 472 543 34,000  Level FlightAware UK
07:56AM 51.2660 -7.1290 319° Northwest 417 480 34,000  Level FlightAware
07:57AM 51.3190 -7.2030 319° Northwest 415 478 34,000  Level FlightAware
07:58AM 51.3700 -7.2750 319° Northwest 413 475 34,000  Level FlightAware
07:58AM 51.4220 -7.3500 318° Northwest 410 472 34,000  Level FlightAware
07:59AM 51.4906 -7.4273 318° Northwest 470 541 34,000  Level FlightAware UK
07:59AM 51.4760 -7.4270 318° Northwest 409 471 34,000  Level FlightAware
07:59AM 51.5326 -7.4876 318° Northwest 472 543 34,000  Level FlightAware UK
08:00AM 51.5260 -7.4990 318° Northwest 407 468 34,000  Level FlightAware
08:00AM 51.5760 -7.5720 318° Northwest 405 466 34,000  Level FlightAware
08:01AM 51.6180 -7.6330 318° Northwest 402 463 34,000  Level FlightAware
08:01AM 51.6650 -7.7000 319° Northwest 401 461 34,000  Level FlightAware
08:02AM 51.7150 -7.7730 318° Northwest 401 461 34,000  Level FlightAware
08:02AM 51.7795 -7.8478 318° Northwest 468 539 34,000  Level FlightAware UK
08:02AM 51.7630 -7.8430 318° Northwest 401 461 34,000  Level FlightAware
08:03AM 51.8204 -7.9077 318° Northwest 466 536 34,000  Level FlightAware UK
08:03AM 51.8110 -7.9130 318° Northwest 401 461 34,000  Level FlightAware
08:04AM 51.8570 -7.9810 318° Northwest 401 461 34,000  Level FlightAware
08:04AM 51.9080 -8.0570 317° Northwest 402 463 34,000  Level FlightAware
08:05AM 51.9520 -8.1210 318° Northwest 403 464 34,000  Level FlightAware
08:05AM 52.0040 -8.1980 318° Northwest 404 465 34,000  Level FlightAware
08:06AM 52.0510 -8.2680 318° Northwest 405 466 34,000  Level FlightAware
08:06AM 52.0642 -8.2728 318° Northwest 468 539 34,000  Level FlightAware UK
08:07AM 52.0980 -8.3390 318° Northwest 407 468 34,000  Level FlightAware
08:07AM 52.1136 -8.3464 318° Northwest 470 541 34,000  Level FlightAware UK
08:07AM 52.1551 -8.4082 318° Northwest 470 541 34,000  Level FlightAware UK
08:07AM 52.1510 -8.4170 318° Northwest 406 467 34,000  Level FlightAware
08:08AM 52.2090 -8.5050 317° Northwest 400 460 34,000  Level FlightAware
08:08AM 52.2510 -8.5680 317° Northwest 401 461 34,000  Level FlightAware
08:09AM 52.3040 -8.6480 317° Northwest 407 468 34,000  Level FlightAware
08:10AM 52.3624 -8.7201 317° Northwest 474 545 34,000  Level FlightAware UK
08:10AM 52.3590 -8.7320 317° Northwest 406 467 34,000  Level FlightAware
08:10AM 52.4110 -8.8100 318° Northwest 399 459 34,000  Level FlightAware
08:11AM 52.4530 -8.8740 317° Northwest 398 458 34,000  Level FlightAware
08:11AM 52.5060 -8.9560 317° Northwest 403 464 34,000  Level FlightAware
08:12AM 52.5520 -9.0250 318° Northwest 400 460 34,000  Level FlightAware
08:13AM 52.6060 -9.1080 317° Northwest 399 459 34,000  Level FlightAware
08:13AM 52.6540 -9.1830 317° Northwest 398 458 34,000  Level FlightAware
08:14AM 52.7040 -9.2600 317° Northwest 398 458 34,000  Level FlightAware
08:14AM 52.7480 -9.3280 317° Northwest 397 457 34,000  Level FlightAware
08:15AM 52.7900 -9.3930 317° Northwest 397 457 34,000  Level FlightAware
08:16AM 52.8380 -9.4680 317° Northwest 396 456 34,000  Level FlightAware
08:16AM 52.8850 -9.5430 316° Northwest 395 455 34,000  Level FlightAware
08:17AM 52.9300 -9.6140 316° Northwest 395 455 34,000  Level FlightAware
08:17AM 52.9780 -9.6890 317° Northwest 395 455 34,000  Level FlightAware
08:18AM 53.0300 -9.7710 317° Northwest 395 455 34,000  Level FlightAware
08:19AM 53.0700 -9.8340 317° Northwest 395 455 34,000  Level FlightAware
08:19AM 53.1100 -9.8980 316° Northwest 389 448 34,000  Level FlightAware
08:20AM 53.1710 -9.9960 316° Northwest 388 447 34,000  Level FlightAware
08:20AM 53.2090 -10.0580 316° Northwest 394 453 34,000  Level FlightAware
08:21AM 53.2540 -10.1350 314° West 394 453 34,000  Level FlightAware
08:21AM 53.2990 -10.2090 316° Northwest 388 447 34,000  Level FlightAware
08:22AM 53.3450 -10.2850 315° West 390 449 34,000  Level FlightAware
08:23AM 53.3890 -10.3580 315° West 389 448 34,000  Level FlightAware
08:23AM 53.4360 -10.4350 316° Northwest 390 449 34,000  Level FlightAware
08:24AM 53.4820 -10.5110 316° Northwest 391 450 34,000  Level FlightAware
08:24AM 53.5280 -10.5870 316° Northwest 391 450 34,000  Level FlightAware
08:25AM 53.5800 -10.6710 316° Northwest 393 452 34,000  Level FlightAware
08:26AM 53.6260 -10.7470 316° Northwest 398 458 34,000  Level FlightAware
08:26AM 53.6720 -10.8210 316° Northwest 399 459 34,000  Level FlightAware
08:27AM 53.7320 -10.9200 316° Northwest 393 452 34,000  Level FlightAware
08:28AM 53.7780 -10.9950 316° Northwest 393 452 34,000  Level FlightAware
08:28AM 53.8240 -11.0720 315° West 394 453 34,000  Level FlightAware
08:29AM 53.8690 -11.1480 315° West 393 452 34,000  Level FlightAware
08:29AM 53.9160 -11.2260 316° Northwest 395 455 34,000  Level FlightAware
08:30AM 53.9610 -11.3020 315° West 396 456 34,000  Level FlightAware
08:30AM 54.0070 -11.3790 315° West 397 457 34,000  Level FlightAware
08:31AM 54.0520 -11.4570 315° West 398 458 34,000  Level FlightAware
08:32AM 54.1000 -11.5390 315° West 399 459 34,000  Level FlightAware
08:32AM 54.1450 -11.6160 315° West 400 460 34,000  Level FlightAware
08:33AM 54.1930 -11.6970 315° West 407 468 34,000  Level FlightAware
08:33AM 54.2380 -11.7750 315° West 408 470 34,000  Level FlightAware
08:34AM 54.2850 -11.8570 314° West 408 470 34,000  Level FlightAware
08:35AM 54.3310 -11.9360 315° West 409 471 34,000  Level FlightAware
08:35AM 54.3780 -12.0170 315° West 408 470 34,000  Level FlightAware
08:36AM 54.4240 -12.0960 315° West 408 470 34,000  Level FlightAware
08:36AM 54.4760 -12.1860 315° West 403 464 34,000  Level FlightAware
08:37AM 54.5230 -12.2690 314° West 402 463 34,000  Level FlightAware
08:38AM 54.5690 -12.3510 314° West 402 463 34,000  Level FlightAware
08:38AM 54.6210 -12.4450 314° West 403 464 34,000  Level FlightAware
08:39AM 54.6670 -12.5280 314° West 404 465 34,000  Level FlightAware
08:39AM 54.7010 -12.5890 314° West 404 465 34,000  Level FlightAware
08:40AM 54.7520 -12.6820 314° West 404 465 34,000  Level FlightAware
08:41AM 54.7990 -12.7690 313° West 406 467 34,000  Level FlightAware
08:41AM 54.8550 -12.8730 313° West 406 467 34,000  Level FlightAware
08:42AM 54.9300 -13.0040 315° West 413 475 34,000  Level FlightAware
08:43AM 54.9890 -13.1100 314° West 408 470 34,000  Level FlightAware
08:43AM 55.0200 -13.1710 312° West 408 470 34,000  Level FlightAware
08:44AM 55.0800 -13.2770 315° West 409 471 34,000  Level FlightAware
08:45AM 55.1360 -13.3820 313° West 409 471 34,000  Level FlightAware
08:45AM 55.1750 -13.4590 312° West 409 471 34,000  Level FlightAware
08:46AM 55.2140 -13.5350 312° West 409 471 34,000  Level FlightAware
08:47AM 55.2530 -13.6100 312° West 409 471 34,000  Level FlightAware
08:47AM 55.2920 -13.6860 312° West 409 471 34,000  Level FlightAware
08:48AM 55.3300 -13.7610 312° West 409 471 34,000  Level FlightAware
08:48AM 55.3700 -13.8390 312° West 409 471 34,000  Level FlightAware
08:49AM 55.4090 -13.9150 312° West 409 471 34,000  Level FlightAware
08:50AM 55.4490 -13.9930 312° West 409 471 34,000  Level FlightAware
08:50AM 55.4880 -14.0710 311° West 409 471 34,000  Level FlightAware
08:51AM 55.5270 -14.1470 312° West 409 471 34,000  Level FlightAware
08:51AM 55.5660 -14.2230 312° West 409 471 34,000  Level FlightAware
08:52AM 55.6050 -14.2990 312° West 409 471 34,000  Level FlightAware
08:53AM 55.6450 -14.3780 312° West 409 471 34,000  Level FlightAware
08:53AM 55.6830 -14.4540 312° West 409 471 34,000  Level FlightAware
08:54AM 55.7230 -14.5320 312° West 409 471 34,000  Level FlightAware
08:57AM 55.7735 -15.0601 280° West  Level Estimated
08:58AM 55.7925 -15.2649 279° West  Level Estimated
08:59AM 55.8111 -15.4699 279° West  Level Estimated
09:00AM 55.8294 -15.6751 279° West  Level Estimated
09:01AM 55.8474 -15.8804 279° West  Level Estimated
09:02AM 55.8649 -16.0860 279° West  Level Estimated
09:03AM 55.8822 -16.2917 279° West  Level Estimated
09:04AM 55.8991 -16.4977 278° West  Level Estimated
09:05AM 55.9157 -16.7038 278° West  Level Estimated
09:06AM 55.9320 -16.9118 278° West  Level Estimated
09:07AM 55.9480 -17.1200 278° West  Level Estimated
09:08AM 55.9637 -17.3283 278° West  Level Estimated
09:09AM 55.9790 -17.5368 278° West  Level Estimated
09:10AM 55.9939 -17.7455 277° West  Level Estimated
09:11AM 56.0085 -17.9543 277° West  Level Estimated
09:12AM 56.0228 -18.1633 277° West  Level Estimated
09:13AM 56.0366 -18.3725 277° West  Level Estimated
09:14AM 56.0502 -18.5818 277° West  Level Estimated
09:15AM 56.0634 -18.7912 277° West  Level Estimated
09:16AM 56.0762 -19.0008 276° West  Level Estimated
09:17AM 56.0886 -19.2105 276° West  Level Estimated
09:18AM 56.1008 -19.4203 276° West  Level Estimated
09:19AM 56.1125 -19.6303 276° West  Level Estimated
09:20AM 56.1239 -19.8404 276° West  Level Estimated
09:21AM 56.1350 -20.0507 275° West  Level Estimated
09:22AM 57.0000 -20.0000 274° West 416 479 34,000  Level ETMS Enhanced Traffic Management System
09:22AM 56.1457 -20.2610 275° West  Level Estimated
09:23AM 56.1560 -20.4715 275° West  Level Estimated
09:24AM 56.1660 -20.6821 275° West  Level Estimated
09:25AM 56.1758 -20.8982 275° West  Level Estimated
09:26AM 56.1853 -21.1145 275° West  Level Estimated
09:27AM 56.1944 -21.3308 274° West  Level Estimated
09:28AM 56.2031 -21.5473 274° West  Level Estimated
09:29AM 57.0563 -21.6988 273° West 416 479 34,000  Level FlightAware Transoceanic
09:30AM 57.0617 -21.9115 273° West 416 479 34,000  Level FlightAware Transoceanic
09:31AM 57.0668 -22.1242 272° West 416 479 34,000  Level FlightAware Transoceanic
09:32AM 57.0715 -22.3370 272° West 416 479 34,000  Level FlightAware Transoceanic
09:33AM 57.0758 -22.5499 272° West 416 479 34,000  Level FlightAware Transoceanic
09:34AM 57.0798 -22.7628 272° West 416 479 34,000  Level FlightAware Transoceanic
09:35AM 57.0834 -22.9757 272° West 416 479 34,000  Level FlightAware Transoceanic
09:36AM 57.0866 -23.1887 272° West 416 479 34,000  Level FlightAware Transoceanic
09:37AM 57.0895 -23.4017 271° West 416 479 34,000  Level FlightAware Transoceanic
09:38AM 57.0921 -23.6147 271° West 416 479 34,000  Level FlightAware Transoceanic
09:39AM 57.0942 -23.8278 271° West 416 479 34,000  Level FlightAware Transoceanic
09:40AM 57.0960 -24.0409 271° West 416 479 34,000  Level FlightAware Transoceanic
09:41AM 57.0975 -24.2540 271° West 416 479 34,000  Level FlightAware Transoceanic
09:42AM 57.0986 -24.4671 270° West 416 479 34,000  Level FlightAware Transoceanic
09:43AM 57.0993 -24.6803 270° West 416 479 34,000  Level FlightAware Transoceanic
09:44AM 57.0997 -24.8934 270° West 416 479 34,000  Level FlightAware Transoceanic
09:45AM 57.0997 -25.1066 270° West 416 479 34,000  Level FlightAware Transoceanic
09:46AM 57.0993 -25.3197 270° West 416 479 34,000  Level FlightAware Transoceanic
09:47AM 57.0986 -25.5329 270° West 416 479 34,000  Level FlightAware Transoceanic
09:48AM 57.0975 -25.7460 269° West 416 479 34,000  Level FlightAware Transoceanic
09:49AM 57.0960 -25.9591 269° West 416 479 34,000  Level FlightAware Transoceanic
09:50AM 57.0942 -26.1722 269° West 416 479 34,000  Level FlightAware Transoceanic
09:51AM 57.0921 -26.3853 269° West 416 479 34,000  Level FlightAware Transoceanic
09:52AM 57.0895 -26.5983 269° West 416 479 34,000  Level FlightAware Transoceanic
09:53AM 57.0866 -26.8113 268° West 416 479 34,000  Level FlightAware Transoceanic
09:54AM 57.0834 -27.0243 268° West 416 479 34,000  Level FlightAware Transoceanic
09:55AM 57.0798 -27.2372 268° West 416 479 34,000  Level FlightAware Transoceanic
09:56AM 57.0758 -27.4501 268° West 416 479 34,000  Level FlightAware Transoceanic
09:57AM 57.0715 -27.6630 268° West 416 479 34,000  Level FlightAware Transoceanic
09:58AM 57.0668 -27.8758 268° West 416 479 34,000  Level FlightAware Transoceanic
09:59AM 57.0617 -28.0885 267° West 416 479 34,000  Level FlightAware Transoceanic
10:00AM 57.0563 -28.3012 267° West 416 479 34,000  Level FlightAware Transoceanic
10:01AM 57.0505 -28.5138 267° West 416 479 34,000  Level FlightAware Transoceanic
10:02AM 57.0444 -28.7264 267° West 416 479 34,000  Level FlightAware Transoceanic
10:03AM 57.0379 -28.9389 267° West 416 479 34,000  Level FlightAware Transoceanic
10:04AM 57.0310 -29.1513 267° West 416 479 34,000  Level FlightAware Transoceanic
10:05AM 57.0238 -29.3636 266° West 416 479 34,000  Level FlightAware Transoceanic
10:06AM 57.0162 -29.5758 266° West 416 479 34,000  Level FlightAware Transoceanic
10:07AM 57.0083 -29.7880 266° West 416 479 34,000  Level FlightAware Transoceanic
10:08AM 56.9996 -30.0091 266° West  Level FlightAware Approximate
10:09AM 56.9990 -30.0181 264° West  Level FlightAware Approximate
10:10AM 56.9860 -30.2384 264° West  Level FlightAware Approximate
10:10AM 57.0000 -30.0000 264° West 429 494 34,000  Level ETMS Enhanced Traffic Management System
10:11AM 56.9726 -30.4586 264° West  Level FlightAware Approximate
10:12AM 56.9588 -30.6787 264° West  Level FlightAware Approximate
10:13AM 56.9447 -30.8985 263° West  Level FlightAware Approximate
10:14AM 56.9301 -31.1182 263° West  Level FlightAware Approximate
10:15AM 56.9152 -31.3377 263° West  Level FlightAware Approximate
10:16AM 56.8871 -31.7365 262° West 429 494 34,000  Level FlightAware Transoceanic
10:17AM 56.8713 -31.9527 262° West 429 494 34,000  Level FlightAware Transoceanic
10:18AM 56.8551 -32.1688 262° West 429 494 34,000  Level FlightAware Transoceanic
10:19AM 56.8385 -32.3847 262° West 429 494 34,000  Level FlightAware Transoceanic
10:20AM 56.8216 -32.6005 262° West 429 494 34,000  Level FlightAware Transoceanic
10:21AM 56.8043 -32.8160 262° West 429 494 34,000  Level FlightAware Transoceanic
10:22AM 56.7867 -33.0313 261° West 429 494 34,000  Level FlightAware Transoceanic
10:23AM 56.7686 -33.2464 261° West 429 494 34,000  Level FlightAware Transoceanic
10:24AM 56.7502 -33.4613 261° West 429 494 34,000  Level FlightAware Transoceanic
10:25AM 56.7314 -33.6760 261° West 429 494 34,000  Level FlightAware Transoceanic
10:26AM 56.7123 -33.8905 261° West 429 494 34,000  Level FlightAware Transoceanic
10:27AM 56.6928 -34.1048 260° West 429 494 34,000  Level FlightAware Transoceanic
10:28AM 56.6729 -34.3188 260° West 429 494 34,000  Level FlightAware Transoceanic
10:29AM 56.6527 -34.5326 260° West 429 494 34,000  Level FlightAware Transoceanic
10:30AM 56.6320 -34.7462 260° West 429 494 34,000  Level FlightAware Transoceanic
10:31AM 56.6111 -34.9595 260° West 429 494 34,000  Level FlightAware Transoceanic
10:32AM 56.5897 -35.1726 260° West 429 494 34,000  Level FlightAware Transoceanic
10:33AM 56.5680 -35.3855 259° West 429 494 34,000  Level FlightAware Transoceanic
10:34AM 56.5460 -35.5981 259° West 429 494 34,000  Level FlightAware Transoceanic
10:35AM 56.5235 -35.8104 259° West 429 494 34,000  Level FlightAware Transoceanic
10:36AM 56.5007 -36.0225 259° West 429 494 34,000  Level FlightAware Transoceanic
10:37AM 56.4776 -36.2344 259° West 429 494 34,000  Level FlightAware Transoceanic
10:38AM 56.4541 -36.4460 259° West 429 494 34,000  Level FlightAware Transoceanic
10:39AM 56.4302 -36.6573 258° West 429 494 34,000  Level FlightAware Transoceanic
10:40AM 56.4060 -36.8684 258° West 429 494 34,000  Level FlightAware Transoceanic
10:41AM 56.3814 -37.0792 258° West 429 494 34,000  Level FlightAware Transoceanic
10:42AM 56.3564 -37.2897 258° West 429 494 34,000  Level FlightAware Transoceanic
10:43AM 56.3311 -37.4999 258° West 429 494 34,000  Level FlightAware Transoceanic
10:44AM 56.3055 -37.7099 257° West 429 494 34,000  Level FlightAware Transoceanic
10:45AM 56.2794 -37.9196 257° West 429 494 34,000  Level FlightAware Transoceanic
10:46AM 56.2531 -38.1289 257° West 429 494 34,000  Level FlightAware Transoceanic
10:47AM 56.2264 -38.3380 257° West 429 494 34,000  Level FlightAware Transoceanic
10:48AM 56.1993 -38.5468 257° West 429 494 34,000  Level FlightAware Transoceanic
10:49AM 56.1719 -38.7553 257° West 429 494 34,000  Level FlightAware Transoceanic
10:50AM 56.1441 -38.9636 256° West 429 494 34,000  Level FlightAware Transoceanic
10:51AM 56.1160 -39.1715 256° West 429 494 34,000  Level FlightAware Transoceanic
10:52AM 56.0875 -39.3791 256° West 429 494 34,000  Level FlightAware Transoceanic
10:53AM 56.0587 -39.5864 256° West 429 494 34,000  Level FlightAware Transoceanic
10:54AM 56.0295 -39.7933 256° West 429 494 34,000  Level FlightAware Transoceanic
10:55AM 55.9996 -40.0026 256° West  Level FlightAware Approximate
10:56AM 55.9997 -40.0053 264° West  Level FlightAware Approximate
10:56AM 56.0000 -40.0000 264° West 449 517 34,000  Level ETMS Enhanced Traffic Management System
10:57AM 55.9872 -40.2201 264° West  Level FlightAware Approximate
10:58AM 55.9743 -40.4346 264° West  Level FlightAware Approximate
10:59AM 55.9610 -40.6490 264° West  Level FlightAware Approximate
11:00AM 55.9473 -40.8633 264° West  Level FlightAware Approximate
11:01AM 55.9333 -41.0774 263° West  Level FlightAware Approximate
11:02AM 55.8852 -41.7727 263° West 449 517 34,000  Level FlightAware Transoceanic
11:03AM 55.8690 -41.9935 262° West 449 517 34,000  Level FlightAware Transoceanic
11:04AM 55.8525 -42.2142 262° West 449 517 34,000  Level FlightAware Transoceanic
11:05AM 55.8356 -42.4346 262° West 449 517 34,000  Level FlightAware Transoceanic
11:06AM 55.8182 -42.6549 262° West 449 517 34,000  Level FlightAware Transoceanic
11:07AM 55.8005 -42.8749 262° West 449 517 34,000  Level FlightAware Transoceanic
11:08AM 55.7824 -43.0948 262° West 449 517 34,000  Level FlightAware Transoceanic
11:09AM 55.7639 -43.3144 261° West 449 517 34,000  Level FlightAware Transoceanic
11:10AM 55.7450 -43.5339 261° West 449 517 34,000  Level FlightAware Transoceanic
11:11AM 55.7257 -43.7531 261° West 449 517 34,000  Level FlightAware Transoceanic
11:12AM 55.7061 -43.9721 261° West 449 517 34,000  Level FlightAware Transoceanic
11:13AM 55.6860 -44.1908 261° West 449 517 34,000  Level FlightAware Transoceanic
11:14AM 55.6656 -44.4094 260° West 449 517 34,000  Level FlightAware Transoceanic
11:15AM 55.6447 -44.6277 260° West 449 517 34,000  Level FlightAware Transoceanic
11:16AM 55.6235 -44.8458 260° West 449 517 34,000  Level FlightAware Transoceanic
11:17AM 55.6019 -45.0636 260° West 449 517 34,000  Level FlightAware Transoceanic
11:18AM 55.5799 -45.2813 260° West 449 517 34,000  Level FlightAware Transoceanic
11:19AM 55.5575 -45.4986 260° West 449 517 34,000  Level FlightAware Transoceanic
11:20AM 55.5347 -45.7157 259° West 449 517 34,000  Level FlightAware Transoceanic
11:21AM 55.5116 -45.9326 259° West 449 517 34,000  Level FlightAware Transoceanic
11:22AM 55.4880 -46.1492 259° West 449 517 34,000  Level FlightAware Transoceanic
11:23AM 55.4641 -46.3655 259° West 449 517 34,000  Level FlightAware Transoceanic
11:24AM 55.4398 -46.5816 259° West 449 517 34,000  Level FlightAware Transoceanic
11:25AM 55.4152 -46.7974 259° West 449 517 34,000  Level FlightAware Transoceanic
11:26AM 55.3901 -47.0129 258° West 449 517 34,000  Level FlightAware Transoceanic
11:27AM 55.3647 -47.2282 258° West 449 517 34,000  Level FlightAware Transoceanic
11:28AM 55.3389 -47.4432 258° West 449 517 34,000  Level FlightAware Transoceanic
11:29AM 55.3127 -47.6579 258° West 449 517 34,000  Level FlightAware Transoceanic
11:30AM 55.2861 -47.8723 258° West 449 517 34,000  Level FlightAware Transoceanic
11:31AM 55.2592 -48.0864 257° West 449 517 34,000  Level FlightAware Transoceanic
11:32AM 55.2319 -48.3003 257° West 449 517 34,000  Level FlightAware Transoceanic
11:33AM 55.2042 -48.5138 257° West 449 517 34,000  Level FlightAware Transoceanic
11:34AM 55.1761 -48.7270 257° West 449 517 34,000  Level FlightAware Transoceanic
11:35AM 55.1477 -48.9400 257° West 449 517 34,000  Level FlightAware Transoceanic
11:36AM 55.1189 -49.1526 257° West 449 517 34,000  Level FlightAware Transoceanic
11:37AM 55.0897 -49.3649 256° West 449 517 34,000  Level FlightAware Transoceanic
11:38AM 55.0602 -49.5769 256° West 449 517 34,000  Level FlightAware Transoceanic
11:39AM 55.0303 -49.7886 256° West 449 517 34,000  Level FlightAware Transoceanic
11:40AM 55.0010 -49.9929 256° West  Level FlightAware Approximate
11:41AM 54.9714 -50.1969 256° West  Level FlightAware Approximate
11:42AM 54.9568 -50.1808 247° West  Level FlightAware Approximate
11:42AM 55.0000 -50.0000 251° West 446 513 34,000  Level ETMS Enhanced Traffic Management System
11:43AM 54.9101 -50.3745 247° West  Level FlightAware Approximate
11:44AM 54.8631 -50.5679 247° West  Level FlightAware Approximate
11:45AM 54.8158 -50.7608 247° West  Level FlightAware Approximate
11:46AM 54.7682 -50.9532 247° West  Level FlightAware Approximate
11:47AM 54.7202 -51.1452 247° West  Level FlightAware Approximate
11:48AM 54.7034 -51.4182 249° West 446 513 34,000  Level FlightAware Transoceanic
11:49AM 54.6596 -51.6191 249° West 446 513 34,000  Level FlightAware Transoceanic
11:50AM 54.6156 -51.8195 249° West 446 513 34,000  Level FlightAware Transoceanic
11:51AM 54.5712 -52.0196 249° West 446 513 34,000  Level FlightAware Transoceanic
11:52AM 54.5265 -52.2192 249° West 446 513 34,000  Level FlightAware Transoceanic
11:53AM 54.4814 -52.4183 249° West 446 513 34,000  Level FlightAware Transoceanic
11:54AM 54.4361 -52.6170 248° West 446 513 34,000  Level FlightAware Transoceanic
11:55AM 54.3904 -52.8153 248° West 446 513 34,000  Level FlightAware Transoceanic
11:56AM 54.3444 -53.0131 248° West 446 513 34,000  Level FlightAware Transoceanic
11:57AM 54.2980 -53.2105 248° West 446 513 34,000  Level FlightAware Transoceanic
11:58AM 54.2514 -53.4074 248° West 446 513 34,000  Level FlightAware Transoceanic
11:59AM 54.2044 -53.6039 248° West 446 513 34,000  Level FlightAware Transoceanic
12:00PM 54.1571 -53.7999 248° West 446 513 34,000  Level FlightAware Transoceanic
12:01PM 54.1095 -53.9955 247° West 446 513 34,000  Level FlightAware Transoceanic
12:02PM 54.0615 -54.1906 247° West 446 513 34,000  Level FlightAware Transoceanic
12:03PM 54.0133 -54.3853 247° West 446 513 34,000  Level FlightAware Transoceanic
12:04PM 53.9647 -54.5796 247° West 446 513 34,000  Level FlightAware Transoceanic
12:05PM 53.9159 -54.7733 247° West 446 513 34,000  Level FlightAware Transoceanic
12:05PM 53.9333 -54.6667 244° Southwest 460 529 34,000  Level Moncton Center
12:06PM 53.7978 -54.8161 192° South  Level FlightAware Approximate
12:06PM 53.8833 -54.8500 245° Southwest 470 541 34,000  Level Moncton Center
12:07PM 53.7362 -54.8471 211° Southwest  Level FlightAware Approximate
12:07PM 53.8000 -55.0333 232° Southwest 470 541 34,000  Level Moncton Center
12:08PM 53.6820 -55.0284 244° Southwest  Level FlightAware Approximate
12:08PM 53.7333 -55.2500 243° Southwest 460 529 34,000  Level Moncton Center
12:09PM 53.6290 -55.2114 244° Southwest  Level FlightAware Approximate
12:09PM 53.7000 -55.4333 253° West 460 529 34,000  Level Moncton Center
12:10PM 53.5757 -55.3940 244° Southwest  Level FlightAware Approximate
12:10PM 53.6333 -55.6500 243° Southwest 460 529 34,000  Level Moncton Center
12:11PM 53.6000 -55.8167 251° West 460 529 34,000  Level Moncton Center
12:12PM 53.5167 -56.0333 237° Southwest 460 529 34,000  Level Moncton Center
12:13PM 53.4833 -56.2167 253° West 460 529 34,000  Level Moncton Center
12:14PM 53.4333 -56.4167 247° West 460 529 34,000  Level Moncton Center
12:15PM 53.3667 -56.6000 239° Southwest 450 518 34,000  Level Moncton Center
12:16PM 53.3167 -56.7833 246° West 450 518 34,000  Level Moncton Center
12:17PM 53.2667 -56.9833 247° West 450 518 34,000  Level Moncton Center
12:18PM 53.2167 -57.1667 246° West 450 518 34,000  Level Moncton Center
12:19PM 53.1500 -57.3667 241° Southwest 450 518 34,000  Level Moncton Center
12:20PM 53.1000 -57.5333 244° Southwest 450 518 34,000  Level Moncton Center
12:21PM 53.0333 -57.7500 243° Southwest 450 518 34,000  Level Moncton Center
12:22PM 52.9833 -57.9167 244° Southwest 450 518 34,000  Level Moncton Center
12:23PM 52.9333 -58.1000 246° West 450 518 34,000  Level Moncton Center
12:24PM 52.8667 -58.3000 241° Southwest 460 529 34,000 420 Level Moncton Center
12:25PM 52.8167 -58.4667 244° Southwest 460 529 34,900 900 Climbing Moncton Center
12:26PM 52.7500 -58.6667 241° Southwest 450 518 35,900 540 Climbing Moncton Center
12:27PM 52.7000 -58.8500 246° West 440 506 36,000  Climbing Moncton Center
12:28PM 52.6333 -59.0167 237° Southwest 440 506 36,000  Level Moncton Center
12:29PM 52.5833 -59.2000 246° West 440 506 36,000  Level Moncton Center
12:30PM 52.5333 -59.3667 244° Southwest 450 518 36,000  Level Moncton Center
12:31PM 52.4500 -59.5667 236° Southwest 450 518 36,000  Level Moncton Center
12:32PM 52.4167 -59.7333 252° West 450 518 36,000  Level Moncton Center
12:33PM 52.3500 -59.9333 241° Southwest 450 518 36,000  Level Moncton Center
12:34PM 52.3000 -60.1000 244° Southwest 450 518 36,000  Level Moncton Center
12:35PM 52.2333 -60.3000 242° Southwest 450 518 36,000  Level Moncton Center
12:36PM 52.1667 -60.4667 237° Southwest 450 518 36,000  Level Moncton Center
12:37PM 52.1167 -60.6333 244° Southwest 450 518 36,000  Level Moncton Center
12:38PM 52.0500 -60.8333 242° Southwest 450 518 36,000  Level Moncton Center
12:39PM 51.9833 -61.0000 237° Southwest 450 518 36,000  Level Moncton Center
12:40PM 51.9333 -61.2000 248° West 450 518 36,000  Level Moncton Center
12:41PM 51.8667 -61.3667 237° Southwest 460 529 36,000  Level Moncton Center
12:42PM 51.8000 -61.5500 240° Southwest 460 529 36,000  Level Moncton Center
12:43PM 51.7333 -61.7167 237° Southwest 460 529 36,000  Level Moncton Center
12:44PM 51.6667 -61.9167 242° Southwest 460 529 36,000  Level Moncton Center
12:45PM 51.6167 -62.0833 244° Southwest 460 529 36,000  Level Moncton Center
12:46PM 51.5500 -62.2500 237° Southwest 450 518 36,000  Level Moncton Center
12:47PM 51.4833 -62.4333 240° Southwest 450 518 36,000  Level Moncton Center
12:48PM 51.4167 -62.6000 237° Southwest 450 518 36,000  Level Moncton Center
12:49PM 51.3500 -62.7833 240° Southwest 450 518 36,000  Level Moncton Center
12:50PM 51.2833 -62.9500 237° Southwest 450 518 36,000  Level Moncton Center
12:51PM 51.2333 -63.1333 247° West 450 518 36,000  Level Moncton Center
12:52PM 51.1667 -63.3000 238° Southwest 450 518 36,000  Level Moncton Center
12:53PM 51.1000 -63.4833 240° Southwest 460 529 36,000  Level Moncton Center
12:54PM 51.0333 -63.6500 238° Southwest 460 529 36,000  Level Moncton Center
12:55PM 50.9667 -63.8333 240° Southwest 460 529 36,000  Level Moncton Center
12:56PM 50.9000 -64.0000 238° Southwest 460 529 36,000  Level Moncton Center
12:57PM 50.8333 -64.1833 240° Southwest 460 529 36,000  Level Moncton Center
12:58PM 50.7667 -64.3500 238° Southwest 460 529 36,000  Level Moncton Center
12:59PM 50.7000 -64.5000 235° Southwest 460 529 36,000  Level Moncton Center
01:00PM 50.6333 -64.6833 240° Southwest 460 529 36,000  Level Moncton Center
01:01PM 50.5667 -64.8500 238° Southwest 460 529 36,000  Level Moncton Center
01:02PM 50.5000 -65.0333 240° Southwest 460 529 36,000  Level Moncton Center
01:03PM 50.4333 -65.2167 240° Southwest 460 529 36,000  Level Moncton Center
01:04PM 50.3333 -65.3667 224° Southwest 460 529 36,000  Level Moncton Center
01:05PM 50.2833 -65.5500 247° West 460 529 36,000  Level Moncton Center
01:06PM 50.2167 -65.7000 235° Southwest 460 529 36,000  Level Moncton Center
01:07PM 50.1333 -65.8833 235° Southwest 460 529 36,000  Level Moncton Center
01:08PM 50.0667 -66.0333 235° Southwest 460 529 36,000  Level Moncton Center
01:09PM 49.9833 -66.2167 235° Southwest 460 529 36,000  Level Montreal Center
01:10PM 49.9000 -66.3833 232° Southwest 460 529 36,000  Level Montreal Center
01:11PM 49.8333 -66.5667 241° Southwest 460 529 36,000  Level Montreal Center
01:12PM 49.7667 -66.7333 238° Southwest 460 529 36,000  Level Montreal Center
01:13PM 49.7000 -66.9000 238° Southwest 460 529 36,000  Level Montreal Center
01:14PM 49.6167 -67.0500 229° Southwest 470 541 36,000  Level Montreal Center
01:15PM 49.5500 -67.2500 243° Southwest 470 541 36,000  Level Montreal Center
01:16PM 49.4833 -67.3833 232° Southwest 470 541 36,000  Level Montreal Center
01:17PM 49.4000 -67.5500 233° Southwest 470 541 36,000  Level Montreal Center
01:18PM 49.3333 -67.7167 239° Southwest 460 529 36,000  Level Montreal Center
01:19PM 49.2667 -67.8833 239° Southwest 460 529 36,000  Level Montreal Center
01:20PM 49.1833 -68.0667 235° Southwest 460 529 36,000  Level Montreal Center
01:21PM 49.1167 -68.2000 233° Southwest 450 518 36,000  Level Montreal Center
01:22PM 49.0167 -68.3500 225° Southwest 460 529 36,000  Level Montreal Center
01:23PM 48.9333 -68.4667 223° Southwest 460 529 36,000  Level Montreal Center
01:24PM 48.8333 -68.6000 221° Southwest 460 529 36,000  Level Montreal Center
01:30PM 48.2730 -69.4410 221° Southwest 462 532 36,000  Level FlightAware
01:30PM 48.2190 -69.5170 223° Southwest 462 532 36,000  Level FlightAware
01:31PM 48.1360 -69.6330 223° Southwest 458 527 36,000  Level FlightAware
01:32PM 48.0820 -69.7090 223° Southwest 461 531 36,000  Level FlightAware
01:33PM 48.0270 -69.7850 223° Southwest 459 528 36,000  Level FlightAware
01:33PM 47.9750 -69.8570 223° Southwest 461 531 36,000  Level FlightAware
01:34PM 47.9060 -69.9530 223° Southwest 461 531 36,000  Level FlightAware
01:34PM 47.8480 -70.0310 222° Southwest 460 529 36,000  Level FlightAware
01:35PM 47.8030 -70.0920 222° Southwest 459 528 36,000  Level FlightAware
01:36PM 47.7380 -70.1800 222° Southwest 458 527 36,000  Level FlightAware
01:36PM 47.6760 -70.2640 222° Southwest 458 527 36,000  Level FlightAware
01:37PM 47.6240 -70.3340 222° Southwest 458 527 36,000  Level FlightAware
01:37PM 47.5750 -70.3980 221° Southwest 457 526 36,000  Level FlightAware
01:38PM 47.5180 -70.4750 222° Southwest 456 525 36,000  Level FlightAware
01:39PM 47.4570 -70.5580 223° Southwest 456 525 36,000  Level FlightAware
01:39PM 47.4020 -70.6330 223° Southwest 456 525 36,000  Level FlightAware
01:40PM 47.3480 -70.7050 222° Southwest 456 525 36,000  Level FlightAware
01:40PM 47.3000 -70.7710 223° Southwest 456 525 36,000  Level FlightAware
01:41PM 47.2400 -70.8500 222° Southwest 456 525 36,000  Level FlightAware
01:42PM 47.1830 -70.9250 222° Southwest 456 525 36,000  Level FlightAware
01:42PM 47.1310 -70.9940 222° Southwest 456 525 36,000  Level FlightAware
01:43PM 47.0740 -71.0680 221° Southwest 456 525 36,000  Level FlightAware
01:43PM 47.0200 -71.1410 223° Southwest 456 525 36,000  Level FlightAware
01:44PM 46.9650 -71.2120 221° Southwest 456 525 36,000  Level FlightAware
01:44PM 46.9090 -71.2850 222° Southwest 456 525 36,000  Level FlightAware
01:45PM 46.8540 -71.3570 222° Southwest 455 524 36,000  Level FlightAware
01:46PM 46.8010 -71.4260 222° Southwest 456 525 36,000 -120 Level FlightAware
01:46PM 46.7450 -71.4990 222° Southwest 456 525 35,900 -780 Descending FlightAware
01:47PM 46.6870 -71.5750 222° Southwest 453 521 35,100 -1,440 Descending FlightAware
01:47PM 46.6240 -71.6590 222° Southwest 453 521 34,100 -1,800 Descending FlightAware
01:48PM 46.5680 -71.7470 227° Southwest 449 517 32,700 -2,220 Descending FlightAware
01:49PM 46.5120 -71.8340 227° Southwest 440 506 31,200 -2,220 Descending FlightAware
01:49PM 46.4700 -71.8970 226° Southwest 427 491 30,200 -2,160 Descending FlightAware
01:50PM 46.4210 -71.9690 225° Southwest 419 482 28,900 -2,100 Descending FlightAware
01:51PM 46.3700 -72.0450 226° Southwest 417 480 27,600 -2,100 Descending FlightAware
01:51PM 46.3260 -72.1090 225° Southwest 408 470 26,500 -2,100 Descending FlightAware
01:52PM 46.2730 -72.1860 225° Southwest 393 452 25,200 -2,040 Descending FlightAware
01:52PM 46.2290 -72.2510 226° Southwest 392 451 24,000 -1,920 Descending FlightAware
01:53PM 46.1910 -72.3060 225° Southwest 386 444 23,100 -1,860 Descending FlightAware
01:53PM 46.1480 -72.3680 225° Southwest 372 428 22,000 -1,980 Descending FlightAware
01:54PM 46.1040 -72.4330 226° Southwest 369 425 20,800 -1,860 Descending FlightAware
01:55PM 46.0620 -72.4940 225° Southwest 364 419 19,800 -1,800 Descending FlightAware
01:55PM 46.0210 -72.5550 226° Southwest 352 405 18,700 -1,920 Descending FlightAware
01:56PM 45.9800 -72.6130 225° Southwest 348 400 17,600 -2,340 Descending FlightAware
01:56PM 45.9400 -72.6710 225° Southwest 367 422 16,000 -2,160 Descending FlightAware
01:57PM 45.8980 -72.7320 225° Southwest 347 399 15,100 -1,680 Descending FlightAware
01:57PM 45.8580 -72.7890 225° Southwest 346 398 14,100 -1,740 Descending FlightAware
01:58PM 45.8190 -72.8460 226° Southwest 342 394 13,100 -1,800 Descending FlightAware
01:59PM 45.7790 -72.9010 224° Southwest 336 387 12,000 -1,800 Descending FlightAware
01:59PM 45.7410 -72.9560 225° Southwest 327 376 11,000 -1,800 Descending FlightAware
02:00PM 45.7210 -73.0140 244° Southwest 319 367 10,100 -1,320 Descending FlightAware
02:00PM 45.7170 -73.0530 262° West 304 350 9,900 -540 Descending FlightAware
02:00PM 45.7140 -73.0830 262° West 291 335 9,800 -540 Descending FlightAware
02:01PM 45.7100 -73.1210 261° West 278 320 9,600 -1,080 Descending FlightAware
02:01PM 45.7060 -73.1580 261° West 280 322 9,100 -1,500 Descending FlightAware
02:01PM 45.6990 -73.1930 254° West 279 321 8,600 -1,380 Descending FlightAware
02:02PM 45.6950 -73.2200 258° West 277 319 8,300 -1,200 Descending FlightAware
02:02PM 45.6890 -73.2570 257° West 269 310 7,900 -1,200 Descending FlightAware
02:02PM 45.6830 -73.2900 255° West 260 299 7,500 -1,380 Descending FlightAware
02:03PM 45.6790 -73.3150 257° West 256 295 7,100 -1,920 Descending FlightAware
02:03PM 45.6740 -73.3480 258° West 254 292 6,400 -2,100 Descending FlightAware
02:03PM 45.6690 -73.3730 254° West 257 296 5,900 -2,100 Descending FlightAware
02:04PM 45.6620 -73.4150 257° West 256 295 5,000 -2,100 Descending FlightAware
02:04PM 45.6580 -73.4380 256° West 255 293 4,500 -1,860 Descending FlightAware
02:04PM 45.6510 -73.4790 256° West 243 280 3,800 -1,500 Descending FlightAware
02:05PM 45.6460 -73.5100 257° West 233 268 3,400 -1,020 Descending FlightAware
02:05PM 45.6440 -73.5250 259° West 231 266 3,300 -840 Descending FlightAware
02:05PM 45.6360 -73.5530 248° West 224 258 3,000 -960 Descending FlightAware
02:05PM 45.6330 -73.5600 238° Southwest 227 261 2,900 -960 Descending FlightAware
02:05PM 45.6180 -73.5810 224° Southwest 218 251 2,600 -360 Descending FlightAware
02:06PM 45.6070 -73.5950 222° Southwest 202 232 2,700 120 Climbing FlightAware
02:06PM 45.5950 -73.6120 225° Southwest 179 206 2,700 -360 Level FlightAware
02:06PM 45.5850 -73.6250 222° Southwest 179 206 2,500 -900 Descending FlightAware
02:07PM 45.5730 -73.6400 221° Southwest 179 206 2,200 -900 Descending FlightAware
02:07PM 45.5610 -73.6560 223° Southwest 181 208 1,900 -960 Descending FlightAware
02:07PM 45.5430 -73.6800 223° Southwest 173 199 1,400 -960 Descending FlightAware
02:08PM 45.5320 -73.6950 224° Southwest 154 177 1,100 -840 Descending FlightAware
02:08PM 45.5190 -73.7110 221° Southwest 142 163 800 -840 Descending FlightAware
02:09PM 45.5090 -73.7240 222° Southwest 139 160 500 -840 Descending FlightAware
02:09PM 45.5030 -73.7320 223° Southwest 138 159 400 -600 Descending FlightAware
02:09PM 45.4890 -73.7510 224° Southwest 145 167 -840 Descending FlightAware
02:10PM 45.4780 -73.7640 220° Southwest 133 153  Level FlightAware
02:10PM 45.4730 -73.7720 228° Southwest 78 90  Level FlightAware